createdAt,value
2022-09-13T00:00:36.833Z,11.57
2022-09-13T00:03:03.381Z,12.68
2022-09-13T00:05:30.675Z,11.80
2022-09-13T00:07:57.701Z,12.30
2022-09-13T00:10:24.879Z,12.05
2022-09-13T00:12:51.341Z,12.25
2022-09-13T00:15:18.135Z,12.10
2022-09-13T00:17:44.818Z,11.93
2022-09-13T00:20:11.299Z,12.25
2022-09-13T00:22:37.750Z,12.55
2022-09-13T00:25:05.985Z,12.60
2022-09-13T00:27:33.805Z,12.68
2022-09-13T00:30:00.417Z,12.35
2022-09-13T00:32:26.984Z,12.38
2022-09-13T00:34:53.431Z,12.88
2022-09-13T00:37:19.883Z,11.70
2022-09-13T00:39:49.669Z,13.00
2022-09-13T00:42:16.758Z,12.30
2022-09-13T00:44:52.585Z,12.00
2022-09-13T00:47:24.502Z,12.20
2022-09-13T00:49:57.588Z,12.52
2022-09-13T00:52:27.436Z,12.13
2022-09-13T00:55:00.872Z,12.30
2022-09-13T00:57:28.917Z,13.27
2022-09-13T01:00:11.803Z,11.93
2022-09-13T01:02:53.680Z,12.13
2022-09-13T01:05:23.391Z,12.02
2022-09-13T01:07:51.018Z,12.88
2022-09-13T01:10:17.772Z,12.80
2022-09-13T01:13:00.989Z,11.70
2022-09-13T01:15:27.509Z,12.10
2022-09-13T01:17:55.300Z,12.07
2022-09-13T01:20:37.806Z,12.02
2022-09-13T01:23:43.090Z,12.20
2022-09-13T01:26:48.379Z,12.05
2022-09-13T01:29:51.870Z,12.65
2022-09-13T01:32:33.261Z,12.15
2022-09-13T01:35:30.476Z,12.27
2022-09-13T01:38:03.042Z,12.10
2022-09-13T01:40:34.741Z,11.93
2022-09-13T01:43:19.756Z,12.77
2022-09-13T01:46:06.332Z,12.10
2022-09-13T01:48:55.747Z,12.13
2022-09-13T01:51:29.311Z,12.10
2022-09-13T01:54:26.688Z,12.27
2022-09-13T01:57:17.773Z,12.05
2022-09-13T01:59:53.091Z,11.52
2022-09-13T02:02:26.931Z,12.30
2022-09-13T02:04:59.536Z,12.02
2022-09-13T02:07:37.601Z,12.05
2022-09-13T02:10:16.949Z,11.48
2022-09-13T02:12:45.447Z,11.18
2022-09-13T02:15:19.700Z,11.30
2022-09-13T02:18:08.880Z,11.13
2022-09-13T02:20:58.949Z,13.50
2022-09-13T02:23:42.258Z,11.07
2022-09-13T02:26:12.550Z,11.77
2022-09-13T02:28:44.679Z,10.90
2022-09-13T02:31:12.894Z,10.60
2022-09-13T02:33:49.169Z,11.88
2022-09-13T02:36:22.546Z,11.75
2022-09-13T02:38:51.856Z,11.90
2022-09-13T02:41:28.395Z,12.32
2022-09-13T02:44:02.433Z,12.93
2022-09-13T02:47:00.076Z,12.35
2022-09-13T02:49:34.112Z,12.27
2022-09-13T02:52:22.397Z,12.75
2022-09-13T02:55:14.281Z,12.68
2022-09-13T02:58:02.541Z,13.73
2022-09-13T03:00:29.547Z,13.57
2022-09-13T03:02:58.535Z,13.38
2022-09-13T03:05:24.984Z,14.30
2022-09-13T03:07:52.426Z,13.40
2022-09-13T03:10:19.396Z,14.18
2022-09-13T03:13:19.869Z,13.52
2022-09-13T03:16:07.634Z,13.75
2022-09-13T03:19:04.456Z,13.95
2022-09-13T03:22:03.143Z,13.07
2022-09-13T03:24:58.763Z,14.43
2022-09-13T03:27:35.535Z,14.57
2022-09-13T03:30:07.990Z,14.15
2022-09-13T03:33:00.237Z,13.85
2022-09-13T03:35:42.660Z,13.93
2022-09-13T03:38:13.461Z,13.48
2022-09-13T03:40:42.968Z,13.75
2022-09-13T03:43:23.753Z,13.32
2022-09-13T03:46:01.118Z,14.00
2022-09-13T03:48:29.323Z,13.65
2022-09-13T03:50:56.235Z,13.73
2022-09-13T03:53:29.009Z,13.32
2022-09-13T03:55:55.518Z,13.50
2022-09-13T03:58:22.729Z,13.50
2022-09-13T04:00:49.210Z,13.73
2022-09-13T04:03:15.821Z,13.68
2022-09-13T04:05:42.279Z,13.38
2022-09-13T04:08:08.763Z,13.63
2022-09-13T04:10:36.330Z,13.18
2022-09-13T04:13:03.263Z,13.38
2022-09-13T04:15:33.633Z,13.00
2022-09-13T04:18:00.962Z,13.77
2022-09-13T04:20:27.924Z,14.07
2022-09-13T04:22:55.931Z,14.02
2022-09-13T04:25:23.161Z,12.95
2022-09-13T04:27:55.020Z,13.68
2022-09-13T04:30:21.935Z,13.73
2022-09-13T04:32:48.405Z,13.00
2022-09-13T04:35:19.013Z,13.65
2022-09-13T04:37:46.217Z,12.80
2022-09-13T04:40:13.081Z,12.95
2022-09-13T04:42:39.918Z,12.90
2022-09-13T04:45:07.142Z,13.07
2022-09-13T04:47:33.603Z,13.55
2022-09-13T04:50:00.192Z,12.85
2022-09-13T04:52:26.678Z,13.02
2022-09-13T04:54:53.144Z,13.75
2022-09-13T04:57:19.617Z,14.35
2022-09-13T04:59:46.105Z,13.23
2022-09-13T05:02:12.640Z,13.55
2022-09-13T05:04:39.203Z,13.90
2022-09-13T05:07:05.745Z,13.18
2022-09-13T05:09:32.205Z,12.85
2022-09-13T05:11:58.660Z,13.48
2022-09-13T05:14:25.128Z,13.50
2022-09-13T05:16:51.586Z,13.35
2022-09-13T05:19:18.191Z,13.95
2022-09-13T05:21:44.686Z,13.70
2022-09-13T05:24:11.790Z,13.93
2022-09-13T05:26:38.323Z,13.68
2022-09-13T05:29:05.240Z,14.65
2022-09-13T05:31:37.783Z,14.25
2022-09-13T05:34:13.711Z,14.25
2022-09-13T05:36:41.282Z,14.77
2022-09-13T05:39:30.359Z,15.05
2022-09-13T05:44:26.164Z,14.88
2022-09-13T05:46:52.683Z,14.48
2022-09-13T05:49:19.201Z,14.52
2022-09-13T05:51:45.742Z,15.27
2022-09-13T05:54:13.255Z,15.73
2022-09-13T05:56:39.761Z,14.82
2022-09-13T05:59:06.370Z,14.98
2022-09-13T06:01:32.915Z,15.45
2022-09-13T06:03:59.600Z,15.65
2022-09-13T06:06:26.866Z,15.95
2022-09-13T06:08:54.762Z,15.63
2022-09-13T06:11:21.592Z,16.67
2022-09-13T06:13:48.758Z,15.77
2022-09-13T06:16:16.842Z,16.95
2022-09-13T06:18:44.267Z,16.23
2022-09-13T06:21:17.628Z,16.58
2022-09-13T06:23:48.032Z,16.02
2022-09-13T06:26:16.713Z,16.75
2022-09-13T06:28:46.653Z,16.63
2022-09-13T06:31:15.501Z,16.48
2022-09-13T06:33:43.438Z,16.15
2022-09-13T06:36:13.690Z,16.80
2022-09-13T06:38:40.719Z,17.38
2022-09-13T06:41:13.100Z,17.65
2022-09-13T06:43:40.534Z,17.80
2022-09-13T06:46:09.579Z,17.63
2022-09-13T06:48:38.519Z,21.80
2022-09-13T06:51:08.061Z,18.88
2022-09-13T06:53:36.182Z,18.92
2022-09-13T06:56:11.277Z,18.27
2022-09-13T06:58:38.772Z,19.38
2022-09-13T07:01:12.655Z,19.83
2022-09-13T07:03:41.586Z,21.17
2022-09-13T07:06:10.408Z,20.40
2022-09-13T07:08:37.511Z,21.33
2022-09-13T07:11:04.543Z,21.27
2022-09-13T07:13:31.011Z,21.23
2022-09-13T07:15:57.615Z,21.67
2022-09-13T07:18:24.199Z,21.35
2022-09-13T07:20:50.672Z,20.77
2022-09-13T07:23:17.149Z,21.58
2022-09-13T07:25:43.663Z,22.50
2022-09-13T07:28:10.107Z,22.13
2022-09-13T07:30:36.674Z,22.90
2022-09-13T07:33:03.143Z,23.83
2022-09-13T07:35:29.588Z,22.60
2022-09-13T07:37:56.049Z,22.95
2022-09-13T07:40:22.639Z,24.10
2022-09-13T07:42:49.220Z,23.88
2022-09-13T07:45:15.715Z,23.70
2022-09-13T07:47:42.666Z,25.15
2022-09-13T07:50:09.525Z,24.50
2022-09-13T07:52:37.951Z,24.55
2022-09-13T07:55:04.724Z,26.40
2022-09-13T07:57:31.181Z,25.90
2022-09-13T07:59:57.664Z,28.55
2022-09-13T08:02:24.227Z,26.85
2022-09-13T08:04:50.913Z,26.65
2022-09-13T08:07:17.438Z,26.98
2022-09-13T08:09:43.879Z,27.70
2022-09-13T08:12:10.403Z,30.50
2022-09-13T08:14:36.920Z,29.55
2022-09-13T08:17:03.388Z,28.27
2022-09-13T08:19:29.858Z,29.92
2022-09-13T08:21:56.300Z,29.38
2022-09-13T08:24:22.937Z,28.30
2022-09-13T08:26:49.930Z,30.45
2022-09-13T08:29:17.300Z,31.20
2022-09-13T08:31:44.313Z,29.75
2022-09-13T08:34:11.781Z,32.13
2022-09-13T08:36:38.279Z,31.85
2022-09-13T08:39:04.792Z,32.10
2022-09-13T08:41:56.666Z,33.28
2022-09-13T08:44:30.065Z,32.38
2022-09-13T08:47:28.136Z,31.90
2022-09-13T08:50:06.300Z,29.63
2022-09-13T08:53:05.762Z,29.10
2022-09-13T08:56:05.646Z,25.85
2022-09-13T08:58:59.901Z,26.27
2022-09-13T09:01:45.727Z,26.65
2022-09-13T09:04:27.580Z,29.25
2022-09-13T09:07:11.899Z,28.25
2022-09-13T09:09:52.313Z,27.27
2022-09-13T09:12:22.985Z,27.60
2022-09-13T09:15:02.881Z,28.20
2022-09-13T09:17:56.322Z,26.90
2022-09-13T09:20:37.513Z,26.83
2022-09-13T09:23:12.688Z,24.27
2022-09-13T09:25:39.524Z,23.98
2022-09-13T09:28:17.907Z,22.20
2022-09-13T09:30:59.026Z,17.25
2022-09-13T09:33:44.556Z,17.25
2022-09-13T09:36:10.961Z,17.52
2022-09-13T09:38:43.193Z,18.13
2022-09-13T09:41:29.207Z,19.17
2022-09-13T09:44:02.389Z,20.38
2022-09-13T09:46:34.050Z,22.27
2022-09-13T09:49:31.117Z,22.13
2022-09-13T09:51:58.252Z,23.42
2022-09-13T09:54:27.247Z,21.17
2022-09-13T09:56:55.126Z,19.90
2022-09-13T09:59:28.468Z,21.40
2022-09-13T10:01:57.836Z,20.10
2022-09-13T10:04:25.526Z,19.48
2022-09-13T10:07:15.565Z,19.08
2022-09-13T10:09:57.505Z,15.50
2022-09-13T10:12:39.736Z,14.95
2022-09-13T10:15:19.328Z,14.38
2022-09-13T10:18:42.990Z,14.13
2022-09-13T10:21:22.929Z,13.50
2022-09-13T10:23:50.742Z,13.45
2022-09-13T10:26:19.147Z,13.85
2022-09-13T10:29:04.311Z,13.23
2022-09-13T10:31:36.400Z,12.57
2022-09-13T10:34:20.991Z,11.45
2022-09-13T10:36:54.355Z,9.50
2022-09-13T10:39:23.695Z,8.93
2022-09-13T10:41:55.035Z,7.75
2022-09-13T10:44:27.387Z,8.88
2022-09-13T10:46:54.410Z,9.73
2022-09-13T10:49:44.207Z,10.60
2022-09-13T10:52:33.551Z,13.30
2022-09-13T10:55:21.159Z,12.23
2022-09-13T10:57:52.691Z,13.02
2022-09-13T11:00:22.765Z,12.07
2022-09-13T11:03:36.356Z,11.52
2022-09-13T11:06:13.747Z,11.00
2022-09-13T11:09:05.105Z,12.25
2022-09-13T11:11:41.957Z,10.40
2022-09-13T11:14:39.431Z,11.50
2022-09-13T11:17:38.554Z,11.07
2022-09-13T11:20:18.036Z,11.00
2022-09-13T11:23:08.752Z,10.45
2022-09-13T11:26:06.290Z,11.33
2022-09-13T11:28:59.995Z,10.77
2022-09-13T11:31:35.584Z,13.07
2022-09-13T11:34:28.928Z,11.25
2022-09-13T11:37:37.031Z,10.82
2022-09-13T11:40:18.439Z,12.00
2022-09-13T11:42:47.872Z,11.30
2022-09-13T11:45:22.248Z,13.23
2022-09-13T11:48:09.233Z,13.68
2022-09-13T11:50:39.779Z,12.40
2022-09-13T11:53:34.008Z,12.57
2022-09-13T11:56:02.174Z,12.07
2022-09-13T11:58:31.750Z,11.32
2022-09-13T12:01:05.185Z,13.00
2022-09-13T12:04:13.839Z,11.98
2022-09-13T12:06:45.352Z,12.30
2022-09-13T12:09:38.344Z,12.82
2022-09-13T12:12:12.589Z,11.98
2022-09-13T12:14:44.563Z,11.38
2022-09-13T12:17:29.276Z,10.25
2022-09-13T12:19:58.758Z,11.68
2022-09-13T12:22:31.021Z,12.02
2022-09-13T12:25:00.281Z,11.15
2022-09-13T12:27:37.671Z,11.15
2022-09-13T12:30:16.352Z,12.40
2022-09-13T12:32:46.103Z,11.73
2022-09-13T12:35:28.663Z,12.80
2022-09-13T12:38:30.747Z,12.63
2022-09-13T12:41:36.976Z,12.80
2022-09-13T12:44:21.843Z,11.65
2022-09-13T12:47:11.105Z,11.05
2022-09-13T12:49:53.910Z,12.27
2022-09-13T12:52:39.062Z,12.68
2022-09-13T12:55:46.800Z,12.18
2022-09-13T12:58:26.695Z,11.05
2022-09-13T13:01:16.885Z,9.85
2022-09-13T13:03:47.180Z,9.38
2022-09-13T13:06:31.137Z,8.90
2022-09-13T13:09:01.847Z,9.07
2022-09-13T13:11:31.248Z,9.15
2022-09-13T13:14:02.141Z,8.00
2022-09-13T13:16:30.136Z,8.25
2022-09-13T13:19:05.095Z,7.68
2022-09-13T13:21:39.911Z,6.88
2022-09-13T13:24:15.551Z,7.07
2022-09-13T13:26:49.464Z,7.30
2022-09-13T13:29:19.752Z,7.50
2022-09-13T13:32:07.678Z,7.53
2022-09-13T13:34:39.789Z,7.20
2022-09-13T13:37:28.151Z,7.20
2022-09-13T13:40:13.240Z,7.55
2022-09-13T13:42:41.015Z,6.95
2022-09-13T13:45:15.863Z,7.00
2022-09-13T13:47:54.601Z,7.57
2022-09-13T13:50:21.389Z,7.20
2022-09-13T13:52:48.039Z,7.22
2022-09-13T13:55:45.890Z,6.60
2022-09-13T13:58:27.408Z,8.25
2022-09-13T14:00:55.399Z,6.65
2022-09-13T14:03:52.851Z,6.72
2022-09-13T14:06:55.708Z,7.38
2022-09-13T14:09:38.908Z,6.80
2022-09-13T14:12:07.778Z,6.60
2022-09-13T14:14:59.284Z,6.63
2022-09-13T14:20:25.905Z,6.30
2022-09-13T14:23:11.441Z,6.40
2022-09-13T14:25:38.104Z,6.18
2022-09-13T14:28:07.088Z,6.80
2022-09-13T14:30:38.398Z,6.18
2022-09-13T14:35:35.273Z,5.63
2022-09-13T14:38:18.254Z,5.68
2022-09-13T14:40:49.148Z,5.10
2022-09-13T14:43:18.782Z,5.47
2022-09-13T14:45:49.583Z,5.50
2022-09-13T14:48:24.405Z,6.00
2022-09-13T14:50:54.125Z,5.70
2022-09-13T14:53:24.882Z,5.82
2022-09-13T14:56:05.332Z,5.30
2022-09-13T14:58:46.493Z,5.50
2022-09-13T15:01:19.265Z,5.75
2022-09-13T15:03:48.091Z,5.47
2022-09-13T15:06:38.222Z,5.60
2022-09-13T15:09:11.023Z,5.38
2022-09-13T15:11:57.584Z,5.22
2022-09-13T15:14:32.726Z,5.28
2022-09-13T15:17:07.193Z,5.60
2022-09-13T15:19:51.283Z,5.60
2022-09-13T15:22:31.577Z,5.28
2022-09-13T15:25:00.307Z,5.60
2022-09-13T15:27:26.746Z,5.38
2022-09-13T15:29:56.320Z,6.20
2022-09-13T15:32:32.649Z,5.70
2022-09-13T15:35:01.365Z,5.68
2022-09-13T15:37:31.527Z,5.85
2022-09-13T15:40:44.288Z,5.55
2022-09-13T15:43:10.775Z,6.65
2022-09-13T15:45:37.268Z,6.47
2022-09-13T15:48:05.091Z,5.65
2022-09-13T15:50:33.239Z,6.03
2022-09-13T15:53:01.069Z,5.90
2022-09-13T15:55:28.596Z,6.10
2022-09-13T15:57:55.507Z,6.10
2022-09-13T16:00:24.479Z,6.50
2022-09-13T16:02:51.216Z,6.35
2022-09-13T16:05:18.371Z,7.13
2022-09-13T16:07:45.129Z,6.90
2022-09-13T16:10:19.442Z,6.78
2022-09-13T16:12:45.966Z,6.70
2022-09-13T16:15:13.019Z,7.18
2022-09-13T16:17:39.854Z,6.97
2022-09-13T16:20:08.876Z,6.80
2022-09-13T16:22:35.360Z,7.70
2022-09-13T16:25:01.926Z,7.03
2022-09-13T16:27:33.251Z,7.50
2022-09-13T16:30:00.440Z,7.22
2022-09-13T16:32:26.891Z,7.60
2022-09-13T16:34:53.439Z,6.90
2022-09-13T16:37:19.988Z,6.85
2022-09-13T16:39:46.719Z,6.40
2022-09-13T16:42:15.512Z,7.15
2022-09-13T16:44:42.248Z,6.97
2022-09-13T16:47:09.044Z,6.78
2022-09-13T16:49:35.756Z,6.55
2022-09-13T16:52:03.729Z,6.95
2022-09-13T16:54:30.936Z,7.00
2022-09-13T16:56:58.547Z,6.82
2022-09-13T16:59:25.076Z,7.07
2022-09-13T17:01:51.649Z,10.10
2022-09-13T17:04:18.644Z,7.22
2022-09-13T17:06:45.207Z,6.60
2022-09-13T17:09:11.806Z,6.80
2022-09-13T17:11:41.041Z,6.82
2022-09-13T17:14:09.149Z,6.90
2022-09-13T17:16:47.622Z,6.80
2022-09-13T17:19:23.420Z,6.90
2022-09-13T17:21:51.001Z,6.55
2022-09-13T17:24:17.889Z,6.90
2022-09-13T17:26:46.585Z,6.40
2022-09-13T17:29:14.219Z,7.05
2022-09-13T17:31:40.982Z,6.13
2022-09-13T17:34:07.816Z,6.20
2022-09-13T17:36:34.365Z,5.85
2022-09-13T17:39:00.819Z,5.95
2022-09-13T17:41:27.264Z,5.95
2022-09-13T17:43:54.424Z,5.72
2022-09-13T17:46:23.449Z,6.68
2022-09-13T17:48:52.074Z,5.60
2022-09-13T17:51:21.598Z,5.53
2022-09-13T17:53:50.426Z,5.53
2022-09-13T17:56:22.618Z,5.50
2022-09-13T17:58:49.601Z,5.43
2022-09-13T18:01:16.290Z,5.57
2022-09-13T18:03:43.598Z,5.40
2022-09-13T18:06:11.679Z,5.60
2022-09-13T18:08:39.250Z,5.38
2022-09-13T18:11:13.712Z,7.22
2022-09-13T18:13:42.526Z,5.00
2022-09-13T18:16:21.629Z,5.43
2022-09-13T18:18:49.960Z,5.05
2022-09-13T18:21:21.094Z,5.53
2022-09-13T18:23:49.479Z,5.25
2022-09-13T18:26:18.570Z,6.97
2022-09-13T18:28:46.049Z,4.80
2022-09-13T18:31:15.503Z,4.95
2022-09-13T18:33:42.846Z,6.72
2022-09-13T18:36:14.623Z,5.00
2022-09-13T18:38:43.218Z,4.88
2022-09-13T18:41:12.525Z,4.75
2022-09-13T18:43:40.750Z,5.60
2022-09-13T18:46:13.716Z,5.03
2022-09-13T18:48:42.857Z,5.95
2022-09-13T18:51:12.472Z,4.97
2022-09-13T18:53:40.007Z,6.20
2022-09-13T18:56:12.611Z,5.32
2022-09-13T18:58:44.162Z,4.85
2022-09-13T19:03:40.898Z,6.90
2022-09-13T19:06:22.339Z,8.02
2022-09-13T19:11:42.217Z,7.35
2022-09-13T19:14:06.987Z,5.57
2022-09-13T19:16:34.508Z,4.60
2022-09-13T19:19:01.420Z,5.40
2022-09-13T19:21:31.328Z,4.97
2022-09-13T19:24:03.228Z,4.65
2022-09-13T19:26:36.423Z,5.03
2022-09-13T19:29:06.647Z,4.60
2022-09-13T19:31:39.091Z,5.10
2022-09-13T19:34:06.347Z,5.00
2022-09-13T19:36:35.682Z,6.93
2022-09-13T19:39:03.563Z,5.22
2022-09-13T19:41:30.376Z,5.65
2022-09-13T19:44:00.501Z,5.55
2022-09-13T19:46:31.454Z,5.13
2022-09-13T19:48:59.844Z,5.82
2022-09-13T19:51:32.569Z,5.97
2022-09-13T19:54:00.347Z,5.60
2022-09-13T19:56:30.252Z,5.30
2022-09-13T19:58:57.627Z,5.60
2022-09-13T20:01:33.439Z,5.40
2022-09-13T20:04:02.269Z,5.80
2022-09-13T20:06:35.319Z,6.05
2022-09-13T20:09:03.894Z,5.70
2022-09-13T20:11:31.461Z,6.93
2022-09-13T20:13:59.313Z,6.70
2022-09-13T20:16:32.012Z,6.03
2022-09-13T20:18:58.769Z,5.80
2022-09-13T20:21:27.364Z,5.85
2022-09-13T20:23:57.452Z,5.65
2022-09-13T20:26:27.804Z,5.68
2022-09-13T20:28:59.997Z,5.53
2022-09-13T20:31:28.178Z,6.90
2022-09-13T20:33:56.118Z,5.78
2022-09-13T20:36:23.253Z,5.95
2022-09-13T20:38:52.598Z,6.43
2022-09-13T20:41:19.822Z,5.30
2022-09-13T20:43:47.851Z,5.85
2022-09-13T20:46:15.288Z,6.35
2022-09-13T20:48:44.346Z,5.70
2022-09-13T20:51:16.799Z,5.68
2022-09-13T20:53:44.055Z,5.10
2022-09-13T20:56:17.053Z,5.10
2022-09-13T20:58:45.166Z,6.70
2022-09-13T21:01:15.088Z,6.47
2022-09-13T21:03:43.455Z,7.65
2022-09-13T21:06:10.466Z,5.60
2022-09-13T21:08:43.587Z,7.43
2022-09-13T21:11:18.628Z,5.85
2022-09-13T21:13:47.294Z,7.38
2022-09-13T21:16:19.502Z,5.82
2022-09-13T21:18:46.466Z,7.07
2022-09-13T21:21:16.043Z,5.80
2022-09-13T21:23:42.918Z,5.65
2022-09-13T21:26:12.347Z,5.53
2022-09-13T21:28:42.581Z,5.60
2022-09-13T21:31:21.501Z,7.68
2022-09-13T21:33:48.761Z,5.95
2022-09-13T21:36:15.252Z,5.82
2022-09-13T21:38:41.814Z,5.85
2022-09-13T21:41:12.357Z,5.60
2022-09-13T21:43:39.163Z,6.35
2022-09-13T21:46:09.297Z,5.70
2022-09-13T21:48:36.476Z,5.72
2022-09-13T21:51:05.312Z,6.10
2022-09-13T21:53:36.946Z,5.78
2022-09-13T21:56:08.874Z,7.88
2022-09-13T21:58:36.514Z,6.35
2022-09-13T22:01:09.682Z,5.30
2022-09-13T22:03:38.153Z,7.18
2022-09-13T22:06:05.600Z,8.00
2022-09-13T22:08:35.612Z,5.63
2022-09-13T22:11:07.643Z,6.45
2022-09-13T22:13:35.797Z,6.03
2022-09-13T22:16:09.473Z,5.65
2022-09-13T22:18:36.454Z,5.78
2022-09-13T22:21:08.013Z,7.05
2022-09-13T22:26:06.708Z,6.00
2022-09-13T22:28:33.288Z,7.25
2022-09-13T22:31:04.695Z,6.07
2022-09-13T22:35:59.731Z,6.70
2022-09-13T22:38:26.488Z,6.55
2022-09-13T22:40:57.560Z,5.82
2022-09-13T22:43:25.001Z,5.80
2022-09-13T22:45:52.197Z,6.20
2022-09-13T22:48:19.968Z,7.20
2022-09-13T22:50:53.697Z,7.72
2022-09-13T22:53:21.392Z,5.57
2022-09-13T22:55:48.543Z,6.13
2022-09-13T22:58:16.680Z,5.30
2022-09-13T23:00:44.719Z,7.20
2022-09-13T23:03:12.370Z,5.88
2022-09-13T23:05:39.171Z,6.72
2022-09-13T23:08:06.204Z,5.25
2022-09-13T23:10:32.869Z,5.40
2022-09-13T23:12:59.396Z,5.78
2022-09-13T23:15:25.846Z,6.40
2022-09-13T23:17:53.062Z,5.20
2022-09-13T23:20:20.162Z,6.85
2022-09-13T23:22:46.953Z,7.80
2022-09-13T23:25:13.443Z,7.75
2022-09-13T23:27:39.887Z,5.57
2022-09-13T23:30:06.765Z,7.43
2022-09-13T23:32:33.261Z,6.57
2022-09-13T23:34:59.700Z,5.32
2022-09-13T23:37:26.152Z,5.50
2022-09-13T23:39:52.638Z,5.55
2022-09-13T23:42:19.352Z,7.13
2022-09-13T23:44:45.798Z,5.35
2022-09-13T23:47:12.268Z,6.97
2022-09-13T23:49:38.703Z,5.55
2022-09-13T23:52:05.285Z,6.72
2022-09-13T23:54:31.736Z,5.70
2022-09-13T23:56:58.203Z,5.97
2022-09-13T23:59:24.678Z,7.30
